createdAt,value
2019-02-09T00:00:18.888Z,0.00
2019-02-09T00:01:18.865Z,0.00
2019-02-09T00:03:23.051Z,0.00
2019-02-09T00:04:23.039Z,0.00
2019-02-09T00:06:16.129Z,0.00
2019-02-09T00:07:16.099Z,0.00
2019-02-09T00:09:20.316Z,0.00
2019-02-09T00:10:20.279Z,0.00
2019-02-09T00:12:24.471Z,0.00
2019-02-09T00:13:24.463Z,0.00
2019-02-09T00:15:28.653Z,0.00
2019-02-09T00:16:28.618Z,0.00
2019-02-09T00:18:32.794Z,0.00
2019-02-09T00:19:32.773Z,0.00
2019-02-09T00:21:36.965Z,0.00
2019-02-09T00:22:36.928Z,0.00
2019-02-09T00:24:41.129Z,0.00
2019-02-09T00:25:41.085Z,0.00
2019-02-09T00:27:45.282Z,0.00
2019-02-09T00:28:45.244Z,0.00
2019-02-09T00:30:49.429Z,0.00
2019-02-09T00:31:49.424Z,0.00
2019-02-09T00:33:53.592Z,0.00
2019-02-09T00:34:53.558Z,0.00
2019-02-09T00:36:57.745Z,0.00
2019-02-09T00:37:57.723Z,0.00
2019-02-09T00:40:01.911Z,0.00
2019-02-09T00:41:01.884Z,0.00
2019-02-09T00:43:06.061Z,0.00
2019-02-09T00:44:06.035Z,0.00
2019-02-09T00:45:59.191Z,0.00
2019-02-09T00:46:59.137Z,0.00
2019-02-09T00:49:03.316Z,0.00
2019-02-09T00:50:03.300Z,0.00
2019-02-09T00:52:07.483Z,0.00
2019-02-09T00:53:07.448Z,0.00
2019-02-09T00:55:11.633Z,0.00
2019-02-09T00:56:11.605Z,0.00
2019-02-09T00:58:15.803Z,0.00
2019-02-09T00:59:15.762Z,0.00
2019-02-09T01:01:19.944Z,0.00
2019-02-09T01:02:19.920Z,0.00
2019-02-09T01:04:24.115Z,0.00
2019-02-09T01:05:24.082Z,0.00
2019-02-09T01:07:28.286Z,0.00
2019-02-09T01:08:28.251Z,0.00
2019-02-09T01:10:32.439Z,0.00
2019-02-09T01:11:32.486Z,0.00
2019-02-09T01:13:36.591Z,0.00
2019-02-09T01:14:36.571Z,0.00
2019-02-09T01:16:29.695Z,0.00
2019-02-09T01:17:29.652Z,0.00
2019-02-09T01:19:33.872Z,0.00
2019-02-09T01:20:33.853Z,0.00
2019-02-09T01:22:38.035Z,0.00
2019-02-09T01:23:38.005Z,0.00
2019-02-09T01:25:43.201Z,0.00
2019-02-09T01:26:43.208Z,0.00
2019-02-09T01:28:47.371Z,0.00
2019-02-09T01:29:47.337Z,0.00
2019-02-09T01:31:51.565Z,0.00
2019-02-09T01:32:51.518Z,0.00
2019-02-09T01:34:55.729Z,0.00
2019-02-09T01:35:55.701Z,0.00
2019-02-09T01:37:59.898Z,0.00
2019-02-09T01:38:59.876Z,0.00
2019-02-09T01:41:04.071Z,0.00
2019-02-09T01:42:04.039Z,0.00
2019-02-09T01:44:08.230Z,0.00
2019-02-09T01:45:08.207Z,0.00
2019-02-09T01:47:12.407Z,0.00
2019-02-09T01:48:12.366Z,0.00
2019-02-09T01:50:16.576Z,0.00
2019-02-09T01:51:16.529Z,0.00
2019-02-09T01:53:20.720Z,0.00
2019-02-09T01:54:20.697Z,0.00
2019-02-09T01:56:13.812Z,0.00
2019-02-09T01:57:13.782Z,0.00
2019-02-09T01:59:17.965Z,0.00
2019-02-09T02:00:17.942Z,0.00
2019-02-09T02:02:22.137Z,0.00
2019-02-09T02:03:22.103Z,0.00
2019-02-09T02:05:26.318Z,0.00
2019-02-09T02:06:26.285Z,0.00
2019-02-09T02:08:30.486Z,0.00
2019-02-09T02:09:30.463Z,0.00
2019-02-09T02:11:34.651Z,0.00
2019-02-09T02:12:34.621Z,0.00
2019-02-09T02:14:38.803Z,0.00
2019-02-09T02:15:38.778Z,0.00
2019-02-09T02:17:42.988Z,0.00
2019-02-09T02:18:42.940Z,0.00
2019-02-09T02:20:47.153Z,0.00
2019-02-09T02:21:47.097Z,0.00
2019-02-09T02:23:51.298Z,0.00
2019-02-09T02:24:51.274Z,0.00
2019-02-09T02:26:55.460Z,0.00
2019-02-09T02:27:55.428Z,0.00
2019-02-09T02:29:59.617Z,0.00
2019-02-09T02:30:59.591Z,0.00
2019-02-09T02:33:03.804Z,0.00
2019-02-09T02:34:03.768Z,0.00
2019-02-09T02:35:56.860Z,0.00
2019-02-09T02:36:56.838Z,0.00
2019-02-09T02:39:01.028Z,0.00
2019-02-09T02:40:00.999Z,0.00
2019-02-09T02:42:05.189Z,0.00
2019-02-09T02:43:05.167Z,0.00
2019-02-09T02:45:09.366Z,0.00
2019-02-09T02:46:09.325Z,0.00
2019-02-09T02:48:13.518Z,0.00
2019-02-09T02:49:13.485Z,0.00
2019-02-09T02:51:17.678Z,0.00
2019-02-09T02:52:17.651Z,0.00
2019-02-09T02:54:21.851Z,0.00
2019-02-09T02:55:21.807Z,0.00
2019-02-09T02:57:26.006Z,0.00
2019-02-09T02:58:25.978Z,0.00
2019-02-09T03:00:32.723Z,0.00
2019-02-09T03:01:30.129Z,0.00
2019-02-09T03:03:34.318Z,0.00
2019-02-09T03:04:34.303Z,0.00
2019-02-09T03:06:27.422Z,0.00
2019-02-09T03:07:27.372Z,0.00
2019-02-09T03:09:31.559Z,0.00
2019-02-09T03:10:31.529Z,0.00
2019-02-09T03:12:35.710Z,0.00
2019-02-09T03:13:36.557Z,0.00
2019-02-09T03:15:39.876Z,0.00
2019-02-09T03:16:39.841Z,0.00
2019-02-09T03:18:44.031Z,0.00
2019-02-09T03:19:44.006Z,0.00
2019-02-09T03:21:48.191Z,0.00
2019-02-09T03:22:48.164Z,0.00
2019-02-09T03:24:52.353Z,0.00
2019-02-09T03:25:52.317Z,0.00
2019-02-09T03:27:56.490Z,0.00
2019-02-09T03:28:56.466Z,0.00
2019-02-09T03:31:00.659Z,0.00
2019-02-09T03:32:00.637Z,0.00
2019-02-09T03:34:04.807Z,0.00
2019-02-09T03:35:04.785Z,0.00
2019-02-09T03:37:08.972Z,0.00
2019-02-09T03:38:08.939Z,0.00
2019-02-09T03:40:13.127Z,0.00
2019-02-09T03:41:13.090Z,0.00
2019-02-09T03:43:17.277Z,0.00
2019-02-09T03:44:17.255Z,0.00
2019-02-09T03:46:10.365Z,0.00
2019-02-09T03:47:10.334Z,0.00
2019-02-09T03:49:14.505Z,0.00
2019-02-09T03:50:14.480Z,0.00
2019-02-09T03:52:18.683Z,0.00
2019-02-09T03:53:18.664Z,0.00
2019-02-09T03:55:22.832Z,0.00
2019-02-09T03:56:22.797Z,0.00
2019-02-09T03:58:26.978Z,0.00
2019-02-09T03:59:26.952Z,0.00
2019-02-09T04:01:31.134Z,0.00
2019-02-09T04:02:31.103Z,0.00
2019-02-09T04:04:35.282Z,0.00
2019-02-09T04:05:35.256Z,0.00
2019-02-09T04:07:39.453Z,0.00
2019-02-09T04:08:39.409Z,0.00
2019-02-09T04:10:43.585Z,0.00
2019-02-09T04:11:43.564Z,0.00
2019-02-09T04:13:47.761Z,0.00
2019-02-09T04:14:47.719Z,0.00
2019-02-09T04:16:51.911Z,0.00
2019-02-09T04:17:51.869Z,0.00
2019-02-09T04:19:56.057Z,0.00
2019-02-09T04:20:56.020Z,0.00
2019-02-09T04:23:00.204Z,0.00
2019-02-09T04:24:00.186Z,0.00
2019-02-09T04:25:53.299Z,0.00
2019-02-09T04:26:53.255Z,0.00
2019-02-09T04:28:57.454Z,0.00
2019-02-09T04:29:57.430Z,0.00
2019-02-09T04:32:01.625Z,0.00
2019-02-09T04:33:01.596Z,0.00
2019-02-09T04:35:05.777Z,0.00
2019-02-09T04:36:05.753Z,0.00
2019-02-09T04:38:09.959Z,0.00
2019-02-09T04:39:09.914Z,0.00
2019-02-09T04:41:14.094Z,0.00
2019-02-09T04:42:14.070Z,0.00
2019-02-09T04:44:18.254Z,0.00
2019-02-09T04:45:25.397Z,0.00
2019-02-09T04:47:22.406Z,0.00
2019-02-09T04:48:22.385Z,0.00
2019-02-09T04:50:26.597Z,0.00
2019-02-09T04:51:26.544Z,0.00
2019-02-09T04:53:30.722Z,0.00
2019-02-09T04:54:30.704Z,0.00
2019-02-09T04:56:23.828Z,0.00
2019-02-09T04:57:23.792Z,0.00
2019-02-09T04:59:27.973Z,0.00
2019-02-09T05:00:27.950Z,0.00
2019-02-09T05:02:32.151Z,0.00
2019-02-09T05:03:32.109Z,0.00
2019-02-09T05:05:36.306Z,0.00
2019-02-09T05:06:36.280Z,0.00
2019-02-09T05:08:40.473Z,0.00
2019-02-09T05:09:40.437Z,0.00
2019-02-09T05:11:44.622Z,0.00
2019-02-09T05:12:44.605Z,0.00
2019-02-09T05:14:48.812Z,0.00
2019-02-09T05:15:48.759Z,0.00
2019-02-09T05:17:52.955Z,0.00
2019-02-09T05:18:52.922Z,0.00
2019-02-09T05:20:57.108Z,0.00
2019-02-09T05:21:57.167Z,0.00
2019-02-09T05:24:01.267Z,0.00
2019-02-09T05:25:01.238Z,0.00
2019-02-09T05:27:05.442Z,0.00
2019-02-09T05:28:05.424Z,0.00
2019-02-09T05:30:09.583Z,0.00
2019-02-09T05:31:09.561Z,0.00
2019-02-09T05:33:13.764Z,0.00
2019-02-09T05:34:13.726Z,0.00
2019-02-09T05:36:06.854Z,0.00
2019-02-09T05:37:06.835Z,0.00
2019-02-09T05:39:11.031Z,0.00
2019-02-09T05:40:11.014Z,0.00
2019-02-09T05:42:15.194Z,0.00
2019-02-09T05:43:15.174Z,0.00
2019-02-09T05:45:19.386Z,0.00
2019-02-09T05:46:19.328Z,0.00
2019-02-09T05:48:23.516Z,0.00
2019-02-09T05:49:23.495Z,0.00
2019-02-09T05:51:27.697Z,0.00
2019-02-09T05:52:27.665Z,0.00
2019-02-09T05:54:31.852Z,0.00
2019-02-09T05:55:31.826Z,0.00
2019-02-09T05:57:36.021Z,0.00
2019-02-09T05:58:36.009Z,0.00
2019-02-09T06:00:40.177Z,0.00
2019-02-09T06:01:40.154Z,0.00
2019-02-09T06:03:44.358Z,0.00
2019-02-09T06:04:44.326Z,0.00
2019-02-09T06:06:37.457Z,0.00
2019-02-09T06:07:37.437Z,0.00
2019-02-09T06:09:41.629Z,0.00
2019-02-09T06:10:41.596Z,0.00
2019-02-09T06:12:45.802Z,0.00
2019-02-09T06:13:45.758Z,0.00
2019-02-09T06:15:49.972Z,0.00
2019-02-09T06:16:49.920Z,0.00
2019-02-09T06:18:54.103Z,0.00
2019-02-09T06:19:54.079Z,0.00
2019-02-09T06:21:58.271Z,0.00
2019-02-09T06:22:58.243Z,0.00
2019-02-09T06:25:02.423Z,0.00
2019-02-09T06:26:03.737Z,0.00
2019-02-09T06:28:06.596Z,0.00
2019-02-09T06:29:06.561Z,0.00
2019-02-09T06:31:10.751Z,0.00
2019-02-09T06:32:10.727Z,0.00
2019-02-09T06:34:14.918Z,0.00
2019-02-09T06:35:14.884Z,0.00
2019-02-09T06:37:19.068Z,0.00
2019-02-09T06:38:19.039Z,0.00
2019-02-09T06:40:23.232Z,0.00
2019-02-09T06:41:23.196Z,0.00
2019-02-09T06:43:27.379Z,0.00
2019-02-09T06:44:27.359Z,0.00
2019-02-09T06:46:20.491Z,0.00
2019-02-09T06:47:20.448Z,0.00
2019-02-09T06:49:24.652Z,0.00
2019-02-09T06:50:24.610Z,0.00
2019-02-09T06:52:28.802Z,0.00
2019-02-09T06:53:28.775Z,0.00
2019-02-09T06:55:32.952Z,0.00
2019-02-09T06:56:32.930Z,0.00
2019-02-09T06:58:37.128Z,0.00
2019-02-09T06:59:37.088Z,0.00
2019-02-09T07:01:48.332Z,0.00
2019-02-09T07:02:41.247Z,5.63
2019-02-09T07:04:45.441Z,5.63
2019-02-09T07:05:45.410Z,5.63
2019-02-09T07:07:49.603Z,5.63
2019-02-09T07:08:49.576Z,5.63
2019-02-09T07:10:53.764Z,0.00
2019-02-09T07:11:53.741Z,5.63
2019-02-09T07:13:57.919Z,11.25
2019-02-09T07:14:57.945Z,11.25
2019-02-09T07:17:02.112Z,5.63
2019-02-09T07:18:02.077Z,16.88
2019-02-09T07:20:06.266Z,5.63
2019-02-09T07:21:06.246Z,22.50
2019-02-09T07:23:10.440Z,16.88
2019-02-09T07:24:10.399Z,5.63
2019-02-09T07:26:03.517Z,22.50
2019-02-09T07:27:03.497Z,11.25
2019-02-09T07:29:07.688Z,11.25
2019-02-09T07:30:07.656Z,11.25
2019-02-09T07:32:11.830Z,5.63
2019-02-09T07:33:11.827Z,5.63
2019-02-09T07:35:16.014Z,11.25
2019-02-09T07:36:15.981Z,16.88
2019-02-09T07:38:20.165Z,11.25
2019-02-09T07:39:20.146Z,11.25
2019-02-09T07:41:24.349Z,11.25
2019-02-09T07:42:24.311Z,11.25
2019-02-09T07:44:28.488Z,16.88
2019-02-09T07:45:28.458Z,16.88
2019-02-09T07:47:32.678Z,11.25
2019-02-09T07:48:32.640Z,11.25
2019-02-09T07:50:36.837Z,16.88
2019-02-09T07:51:36.818Z,16.88
2019-02-09T07:53:41.010Z,16.88
2019-02-09T07:54:40.972Z,22.50
2019-02-09T07:56:34.089Z,22.50
2019-02-09T07:57:34.064Z,28.13
2019-02-09T07:59:38.268Z,33.75
2019-02-09T08:00:38.225Z,28.13
2019-02-09T08:02:42.412Z,39.38
2019-02-09T08:03:42.384Z,39.38
2019-02-09T08:05:46.578Z,39.38
2019-02-09T08:06:46.557Z,50.63
2019-02-09T08:08:50.731Z,56.25
2019-02-09T08:09:50.708Z,61.88
2019-02-09T08:11:54.908Z,61.88
2019-02-09T08:12:54.876Z,61.88
2019-02-09T08:14:59.083Z,67.50
2019-02-09T08:15:59.055Z,73.13
2019-02-09T08:18:03.267Z,84.38
2019-02-09T08:19:03.233Z,95.63
2019-02-09T08:21:07.423Z,78.75
2019-02-09T08:22:07.400Z,84.38
2019-02-09T08:24:11.594Z,95.63
2019-02-09T08:25:11.563Z,101.25
2019-02-09T08:27:23.298Z,95.63
2019-02-09T08:28:15.731Z,90.00
2019-02-09T08:30:19.929Z,90.00
2019-02-09T08:31:19.894Z,90.00
2019-02-09T08:33:24.081Z,78.75
2019-02-09T08:34:24.059Z,73.13
2019-02-09T08:36:17.192Z,61.88
2019-02-09T08:37:17.162Z,56.25
2019-02-09T08:39:21.360Z,56.25
2019-02-09T08:40:21.338Z,56.25
2019-02-09T08:42:25.554Z,84.38
2019-02-09T08:43:25.522Z,90.00
2019-02-09T08:45:29.720Z,101.25
2019-02-09T08:46:29.725Z,106.88
2019-02-09T08:48:33.902Z,101.25
2019-02-09T08:49:33.894Z,95.63
2019-02-09T08:51:38.058Z,90.00
2019-02-09T08:52:38.034Z,101.25
2019-02-09T08:54:42.266Z,84.38
2019-02-09T08:55:42.220Z,61.88
2019-02-09T08:57:46.406Z,45.00
2019-02-09T08:58:46.398Z,39.38
2019-02-09T09:00:50.592Z,39.38
2019-02-09T09:01:50.562Z,45.00
2019-02-09T09:03:54.748Z,56.25
2019-02-09T09:04:54.733Z,56.25
2019-02-09T09:06:58.919Z,50.63
2019-02-09T09:07:58.902Z,50.63
2019-02-09T09:10:03.075Z,50.63
2019-02-09T09:11:03.054Z,50.63
2019-02-09T09:13:07.274Z,45.00
2019-02-09T09:14:07.222Z,39.38
2019-02-09T09:16:00.360Z,39.38
2019-02-09T09:17:00.334Z,50.63
2019-02-09T09:19:04.531Z,39.38
2019-02-09T09:20:04.504Z,39.38
2019-02-09T09:22:08.697Z,39.38
2019-02-09T09:23:08.669Z,39.38
2019-02-09T09:25:12.869Z,50.63
2019-02-09T09:26:12.836Z,56.25
2019-02-09T09:28:17.022Z,61.88
2019-02-09T09:29:17.001Z,45.00
2019-02-09T09:31:21.191Z,50.63
2019-02-09T09:32:28.233Z,61.88
2019-02-09T09:34:25.348Z,61.88
2019-02-09T09:35:25.322Z,50.63
2019-02-09T09:37:29.533Z,39.38
2019-02-09T09:38:29.493Z,39.38
2019-02-09T09:40:33.678Z,45.00
2019-02-09T09:41:33.658Z,61.88
2019-02-09T09:43:37.857Z,67.50
2019-02-09T09:44:37.820Z,78.75
2019-02-09T09:46:30.958Z,61.88
2019-02-09T09:47:30.920Z,56.25
2019-02-09T09:49:35.153Z,45.00
2019-02-09T09:50:35.081Z,50.63
2019-02-09T09:52:39.260Z,50.63
2019-02-09T09:53:39.237Z,45.00
2019-02-09T09:55:43.455Z,90.00
2019-02-09T09:56:43.395Z,101.25
2019-02-09T09:58:47.592Z,106.88
2019-02-09T09:59:47.570Z,101.25
2019-02-09T10:01:51.765Z,78.75
2019-02-09T10:02:51.728Z,90.00
2019-02-09T10:04:56.173Z,84.38
2019-02-09T10:05:55.911Z,95.63
2019-02-09T10:08:00.098Z,61.88
2019-02-09T10:09:00.064Z,61.88
2019-02-09T10:11:04.256Z,45.00
2019-02-09T10:12:04.233Z,45.00
2019-02-09T10:14:09.111Z,50.63
2019-02-09T10:15:08.405Z,61.88
2019-02-09T10:17:12.663Z,78.75
2019-02-09T10:18:12.626Z,84.38
2019-02-09T10:20:16.827Z,61.88
2019-02-09T10:21:16.803Z,50.63
2019-02-09T10:23:21.025Z,73.13
2019-02-09T10:24:20.972Z,67.50
2019-02-09T10:26:14.090Z,67.50
2019-02-09T10:27:14.069Z,73.13
2019-02-09T10:29:18.263Z,73.13
2019-02-09T10:30:18.230Z,67.50
2019-02-09T10:32:22.418Z,67.50
2019-02-09T10:33:22.417Z,50.63
2019-02-09T10:35:26.599Z,33.75
2019-02-09T10:36:26.562Z,33.75
2019-02-09T10:38:30.759Z,45.00
2019-02-09T10:39:30.733Z,39.38
2019-02-09T10:41:34.921Z,45.00
2019-02-09T10:42:34.942Z,50.63
2019-02-09T10:44:39.073Z,61.88
2019-02-09T10:45:39.050Z,56.25
2019-02-09T10:47:43.263Z,61.88
2019-02-09T10:48:43.230Z,61.88
2019-02-09T10:50:47.416Z,67.50
2019-02-09T10:51:47.395Z,73.13
2019-02-09T10:53:51.595Z,61.88
2019-02-09T10:54:51.562Z,67.50
2019-02-09T10:56:55.754Z,67.50
2019-02-09T10:57:55.731Z,56.25
2019-02-09T10:59:59.933Z,73.13
2019-02-09T11:00:59.903Z,95.63
2019-02-09T11:03:04.088Z,73.13
2019-02-09T11:04:04.062Z,78.75
2019-02-09T11:05:57.191Z,67.50
2019-02-09T11:06:57.160Z,90.00
2019-02-09T11:09:01.365Z,90.00
2019-02-09T11:10:01.327Z,90.00
2019-02-09T11:12:05.512Z,106.88
2019-02-09T11:13:05.490Z,101.25
2019-02-09T11:15:09.709Z,95.63
2019-02-09T11:16:09.665Z,90.00
2019-02-09T11:18:13.883Z,84.38
2019-02-09T11:19:13.853Z,84.38
2019-02-09T11:21:18.057Z,78.75
2019-02-09T11:22:18.019Z,78.75
2019-02-09T11:24:22.214Z,84.38
2019-02-09T11:25:22.190Z,84.38
2019-02-09T11:27:26.388Z,78.75
2019-02-09T11:28:26.356Z,90.00
2019-02-09T11:30:30.553Z,112.50
2019-02-09T11:31:30.529Z,118.13
2019-02-09T11:33:34.723Z,135.00
2019-02-09T11:34:34.697Z,135.00
2019-02-09T11:36:27.822Z,140.63
2019-02-09T11:37:27.798Z,140.63
2019-02-09T11:39:32.011Z,140.63
2019-02-09T11:40:31.984Z,140.63
2019-02-09T11:42:36.188Z,163.13
2019-02-09T11:43:36.168Z,168.75
2019-02-09T11:45:40.368Z,146.25
2019-02-09T11:46:40.336Z,151.88
2019-02-09T11:48:44.532Z,140.63
2019-02-09T11:49:44.517Z,140.63
2019-02-09T11:51:48.740Z,135.00
2019-02-09T11:52:48.686Z,135.00
2019-02-09T11:54:52.889Z,146.25
2019-02-09T11:55:52.869Z,140.63
2019-02-09T11:57:57.078Z,118.13
2019-02-09T11:58:57.047Z,129.38
2019-02-09T12:01:01.240Z,118.13
2019-02-09T12:02:01.213Z,123.75
2019-02-09T12:04:05.424Z,123.75
2019-02-09T12:05:05.396Z,129.38
2019-02-09T12:07:09.604Z,123.75
2019-02-09T12:08:09.570Z,129.38
2019-02-09T12:10:13.803Z,106.88
2019-02-09T12:11:13.769Z,112.50
2019-02-09T12:13:17.994Z,118.13
2019-02-09T12:14:17.954Z,112.50
2019-02-09T12:16:11.110Z,106.88
2019-02-09T12:17:11.056Z,90.00
2019-02-09T12:19:15.252Z,73.13
2019-02-09T12:20:15.222Z,84.38
2019-02-09T12:22:19.440Z,78.75
2019-02-09T12:23:19.394Z,90.00
2019-02-09T12:25:23.588Z,106.88
2019-02-09T12:26:23.576Z,101.25
2019-02-09T12:28:27.787Z,90.00
2019-02-09T12:29:27.744Z,84.38
2019-02-09T12:31:31.942Z,61.88
2019-02-09T12:32:31.919Z,61.88
2019-02-09T12:34:36.130Z,101.25
2019-02-09T12:35:36.093Z,118.13
2019-02-09T12:37:40.314Z,73.13
2019-02-09T12:38:40.293Z,67.50
2019-02-09T12:40:44.504Z,67.50
2019-02-09T12:41:44.470Z,95.63
2019-02-09T12:43:48.661Z,84.38
2019-02-09T12:44:48.646Z,56.25
2019-02-09T12:46:41.778Z,50.63
2019-02-09T12:47:41.748Z,50.63
2019-02-09T12:49:45.933Z,33.75
2019-02-09T12:50:45.935Z,28.13
2019-02-09T12:52:50.110Z,33.75
2019-02-09T12:53:50.087Z,28.13
2019-02-09T12:55:54.272Z,28.13
2019-02-09T12:56:54.249Z,33.75
2019-02-09T12:58:58.456Z,39.38
2019-02-09T12:59:58.423Z,39.38
2019-02-09T13:02:02.619Z,78.75
2019-02-09T13:03:02.606Z,106.88
2019-02-09T13:05:06.820Z,129.38
2019-02-09T13:06:06.792Z,129.38
2019-02-09T13:08:10.991Z,123.75
2019-02-09T13:09:10.967Z,123.75
2019-02-09T13:11:15.164Z,118.13
2019-02-09T13:12:15.132Z,112.50
2019-02-09T13:14:19.359Z,129.38
2019-02-09T13:15:19.303Z,129.38
2019-02-09T13:17:23.508Z,123.75
2019-02-09T13:18:23.470Z,118.13
2019-02-09T13:20:27.678Z,106.88
2019-02-09T13:21:27.661Z,101.25
2019-02-09T13:23:31.855Z,84.38
2019-02-09T13:24:31.820Z,78.75
2019-02-09T13:26:24.955Z,101.25
2019-02-09T13:27:24.933Z,112.50
2019-02-09T13:29:29.163Z,123.75
2019-02-09T13:30:29.132Z,118.13
2019-02-09T13:32:33.327Z,112.50
2019-02-09T13:33:38.797Z,106.88
2019-02-09T13:35:37.507Z,101.25
2019-02-09T13:36:37.483Z,112.50
2019-02-09T13:38:41.679Z,95.63
2019-02-09T13:39:41.650Z,95.63
2019-02-09T13:41:45.860Z,73.13
2019-02-09T13:42:45.830Z,73.13
2019-02-09T13:44:50.023Z,95.63
2019-02-09T13:45:50.003Z,106.88
2019-02-09T13:47:54.211Z,106.88
2019-02-09T13:48:54.278Z,101.25
2019-02-09T13:50:58.366Z,101.25
2019-02-09T13:51:58.356Z,112.50
2019-02-09T13:54:02.559Z,112.50
2019-02-09T13:55:02.523Z,112.50
2019-02-09T13:57:06.736Z,95.63
2019-02-09T13:58:06.713Z,84.38
2019-02-09T14:00:10.919Z,56.25
2019-02-09T14:01:10.889Z,50.63
2019-02-09T14:03:15.096Z,61.88
2019-02-09T14:04:15.076Z,73.13
2019-02-09T14:06:08.621Z,90.00
2019-02-09T14:07:08.192Z,101.25
2019-02-09T14:09:12.385Z,95.63
2019-02-09T14:10:12.384Z,90.00
2019-02-09T14:12:16.571Z,78.75
2019-02-09T14:13:16.575Z,84.38
2019-02-09T14:15:20.732Z,78.75
2019-02-09T14:16:20.712Z,78.75
2019-02-09T14:18:24.920Z,78.75
2019-02-09T14:19:24.887Z,78.75
2019-02-09T14:21:29.097Z,90.00
2019-02-09T14:22:29.062Z,84.38
2019-02-09T14:24:33.267Z,84.38
2019-02-09T14:25:33.238Z,84.38
2019-02-09T14:27:37.450Z,84.38
2019-02-09T14:28:37.428Z,84.38
2019-02-09T14:30:41.632Z,78.75
2019-02-09T14:31:41.602Z,84.38
2019-02-09T14:33:45.800Z,84.38
2019-02-09T14:34:45.783Z,78.75
2019-02-09T14:36:38.908Z,73.13
2019-02-09T14:37:38.877Z,73.13
2019-02-09T14:39:43.076Z,73.13
2019-02-09T14:40:43.068Z,73.13
2019-02-09T14:42:47.256Z,78.75
2019-02-09T14:43:47.232Z,78.75
2019-02-09T14:45:51.429Z,84.38
2019-02-09T14:46:51.403Z,84.38
2019-02-09T14:48:55.603Z,84.38
2019-02-09T14:49:55.580Z,84.38
2019-02-09T14:51:59.788Z,67.50
2019-02-09T14:52:59.758Z,56.25
2019-02-09T14:55:04.013Z,73.13
2019-02-09T14:56:03.984Z,73.13
2019-02-09T14:58:08.204Z,78.75
2019-02-09T14:59:08.165Z,78.75
2019-02-09T15:01:12.354Z,73.13
2019-02-09T15:02:12.335Z,73.13
2019-02-09T15:04:16.531Z,67.50
2019-02-09T15:05:16.505Z,61.88
2019-02-09T15:07:20.711Z,56.25
2019-02-09T15:08:20.677Z,61.88
2019-02-09T15:10:24.885Z,61.88
2019-02-09T15:11:24.860Z,61.88
2019-02-09T15:13:29.044Z,56.25
2019-02-09T15:14:29.023Z,56.25
2019-02-09T15:16:22.169Z,56.25
2019-02-09T15:17:22.149Z,56.25
2019-02-09T15:19:26.333Z,50.63
2019-02-09T15:20:26.308Z,50.63
2019-02-09T15:22:30.520Z,45.00
2019-02-09T15:23:30.489Z,45.00
2019-02-09T15:25:35.009Z,45.00
2019-02-09T15:26:34.646Z,45.00
2019-02-09T15:28:38.843Z,45.00
2019-02-09T15:29:38.816Z,45.00
2019-02-09T15:31:43.034Z,39.38
2019-02-09T15:32:42.990Z,39.38
2019-02-09T15:34:47.177Z,39.38
2019-02-09T15:35:47.159Z,39.38
2019-02-09T15:37:51.350Z,39.38
2019-02-09T15:38:51.323Z,39.38
2019-02-09T15:40:55.521Z,33.75
2019-02-09T15:41:55.494Z,33.75
2019-02-09T15:43:59.698Z,33.75
2019-02-09T15:44:59.679Z,33.75
2019-02-09T15:47:03.877Z,28.13
2019-02-09T15:48:03.845Z,28.13
2019-02-09T15:50:09.269Z,28.13
2019-02-09T15:51:09.281Z,28.13
2019-02-09T15:53:14.457Z,22.50
2019-02-09T15:54:13.188Z,22.50
2019-02-09T15:56:06.326Z,22.50
2019-02-09T15:57:06.343Z,22.50
2019-02-09T15:59:10.480Z,22.50
2019-02-09T16:00:10.455Z,22.50
2019-02-09T16:02:14.661Z,16.88
2019-02-09T16:03:14.630Z,16.88
2019-02-09T16:05:19.219Z,16.88
2019-02-09T16:06:18.795Z,16.88
2019-02-09T16:08:23.009Z,11.25
2019-02-09T16:09:22.974Z,11.25
2019-02-09T16:11:27.152Z,11.25
2019-02-09T16:12:27.132Z,11.25
2019-02-09T16:14:31.349Z,11.25
2019-02-09T16:15:31.298Z,11.25
2019-02-09T16:17:35.519Z,5.63
2019-02-09T16:18:35.485Z,5.63
2019-02-09T16:20:39.699Z,5.63
2019-02-09T16:21:39.687Z,5.63
2019-02-09T16:23:43.856Z,5.63
2019-02-09T16:24:43.828Z,5.63
2019-02-09T16:26:36.954Z,0.00
2019-02-09T16:27:36.988Z,0.00
2019-02-09T16:29:41.132Z,0.00
2019-02-09T16:30:41.105Z,0.00
2019-02-09T16:32:45.305Z,0.00
2019-02-09T16:33:45.267Z,0.00
2019-02-09T16:35:49.454Z,0.00
2019-02-09T16:36:49.431Z,0.00
2019-02-09T16:38:53.626Z,0.00
2019-02-09T16:39:53.593Z,0.00
2019-02-09T16:41:57.786Z,0.00
2019-02-09T16:42:57.765Z,0.00
2019-02-09T16:45:01.958Z,0.00
2019-02-09T16:46:01.924Z,0.00
2019-02-09T16:48:06.118Z,0.00
2019-02-09T16:49:06.090Z,0.00
2019-02-09T16:51:10.294Z,0.00
2019-02-09T16:52:10.262Z,0.00
2019-02-09T16:54:14.451Z,0.00
2019-02-09T16:55:14.421Z,0.00
2019-02-09T16:57:18.611Z,0.00
2019-02-09T16:58:18.583Z,0.00
2019-02-09T17:00:22.766Z,0.00
2019-02-09T17:01:22.749Z,0.00
2019-02-09T17:03:26.945Z,0.00
2019-02-09T17:04:33.122Z,0.00
2019-02-09T17:06:20.036Z,0.00
2019-02-09T17:07:20.004Z,0.00
2019-02-09T17:09:24.196Z,0.00
2019-02-09T17:10:24.175Z,0.00
2019-02-09T17:12:28.370Z,0.00
2019-02-09T17:13:28.335Z,0.00
2019-02-09T17:15:32.544Z,0.00
2019-02-09T17:16:32.508Z,0.00
2019-02-09T17:18:36.697Z,0.00
2019-02-09T17:19:36.670Z,0.00
2019-02-09T17:21:40.877Z,0.00
2019-02-09T17:22:40.837Z,0.00
2019-02-09T17:24:45.031Z,0.00
2019-02-09T17:25:45.005Z,0.00
2019-02-09T17:27:49.202Z,0.00
2019-02-09T17:28:49.175Z,0.00
2019-02-09T17:30:53.367Z,0.00
2019-02-09T17:31:53.334Z,0.00
2019-02-09T17:33:57.518Z,0.00
2019-02-09T17:34:57.498Z,0.00
2019-02-09T17:37:01.710Z,0.00
2019-02-09T17:38:01.677Z,0.00
2019-02-09T17:40:05.864Z,0.00
2019-02-09T17:41:05.844Z,0.00
2019-02-09T17:43:10.043Z,0.00
2019-02-09T17:44:10.009Z,0.00
2019-02-09T17:46:03.127Z,0.00
2019-02-09T17:47:03.112Z,0.00
2019-02-09T17:49:07.293Z,0.00
2019-02-09T17:50:07.266Z,0.00
2019-02-09T17:52:11.451Z,0.00
2019-02-09T17:53:11.419Z,0.00
2019-02-09T17:55:15.622Z,0.00
2019-02-09T17:56:15.587Z,0.00
2019-02-09T17:58:19.773Z,0.00
2019-02-09T17:59:19.752Z,0.00
2019-02-09T18:01:23.943Z,0.00
2019-02-09T18:02:23.912Z,0.00
2019-02-09T18:04:28.098Z,0.00
2019-02-09T18:05:28.072Z,0.00
2019-02-09T18:07:32.313Z,0.00
2019-02-09T18:08:32.264Z,0.00
2019-02-09T18:10:36.444Z,0.00
2019-02-09T18:11:36.418Z,0.00
2019-02-09T18:13:40.617Z,0.00
2019-02-09T18:14:40.593Z,0.00
2019-02-09T18:16:33.701Z,0.00
2019-02-09T18:17:33.678Z,0.00
2019-02-09T18:19:37.882Z,0.00
2019-02-09T18:20:37.843Z,0.00
2019-02-09T18:22:42.027Z,0.00
2019-02-09T18:23:42.006Z,0.00
2019-02-09T18:25:46.197Z,0.00
2019-02-09T18:26:46.168Z,0.00
2019-02-09T18:28:50.355Z,0.00
2019-02-09T18:29:50.325Z,0.00
2019-02-09T18:31:54.518Z,0.00
2019-02-09T18:32:54.492Z,0.00
2019-02-09T18:34:58.685Z,0.00
2019-02-09T18:35:58.660Z,0.00
2019-02-09T18:38:02.888Z,0.00
2019-02-09T18:39:02.837Z,0.00
2019-02-09T18:41:07.025Z,0.00
2019-02-09T18:42:06.990Z,0.00
2019-02-09T18:44:11.177Z,0.00
2019-02-09T18:45:11.157Z,0.00
2019-02-09T18:47:15.355Z,0.00
2019-02-09T18:48:15.310Z,0.00
2019-02-09T18:50:19.513Z,0.00
2019-02-09T18:51:19.479Z,0.00
2019-02-09T18:53:23.672Z,0.00
2019-02-09T18:54:23.669Z,0.00
2019-02-09T18:56:16.751Z,0.00
2019-02-09T18:57:16.735Z,0.00
2019-02-09T18:59:20.920Z,0.00
2019-02-09T19:00:20.923Z,0.00
2019-02-09T19:02:25.072Z,0.00
2019-02-09T19:03:25.047Z,0.00
2019-02-09T19:05:29.244Z,0.00
2019-02-09T19:06:29.281Z,0.00
2019-02-09T19:08:33.408Z,0.00
2019-02-09T19:09:33.401Z,0.00
2019-02-09T19:11:37.593Z,0.00
2019-02-09T19:12:37.564Z,0.00
2019-02-09T19:14:41.743Z,0.00
2019-02-09T19:15:41.722Z,0.00
2019-02-09T19:17:45.934Z,0.00
2019-02-09T19:18:45.880Z,0.00
2019-02-09T19:20:50.099Z,0.00
2019-02-09T19:21:50.058Z,0.00
2019-02-09T19:23:54.247Z,0.00
2019-02-09T19:24:54.218Z,0.00
2019-02-09T19:26:58.402Z,0.00
2019-02-09T19:27:58.377Z,0.00
2019-02-09T19:30:02.568Z,0.00
2019-02-09T19:31:02.534Z,0.00
2019-02-09T19:33:06.723Z,0.00
2019-02-09T19:34:06.725Z,0.00
2019-02-09T19:35:59.823Z,0.00
2019-02-09T19:36:59.788Z,0.00
2019-02-09T19:39:03.977Z,0.00
2019-02-09T19:40:03.957Z,0.00
2019-02-09T19:42:08.186Z,0.00
2019-02-09T19:43:08.198Z,0.00
2019-02-09T19:45:12.347Z,0.00
2019-02-09T19:46:12.318Z,0.00
2019-02-09T19:48:16.522Z,0.00
2019-02-09T19:49:16.486Z,0.00
2019-02-09T19:51:20.709Z,0.00
2019-02-09T19:52:20.678Z,0.00
2019-02-09T19:54:24.863Z,0.00
2019-02-09T19:55:24.831Z,0.00
2019-02-09T19:57:29.033Z,0.00